Terminal Aerodrome Forecast
Issued by NWS

Home | Current Version | Previous Version | Text Only | Print | Product List | Glossary On
Versions: 1 2 3 4 5 6 7 8 9 10 11 12 13
644
FTPA31 PHFO 282335
TAFHKO
TAF
PHKO 282335Z 2900/2924 21011KT P6SM SCT025 BKN060
     FM290600 11007KT P6SM FEW025 SCT060
     FM291000 06007KT P6SM FEW025 SCT060
     FM292000 20011KT P6SM FEW025 BKN060=

USA.gov is the U.S. government's official web portal to all federal, state and local government web resources and services.